Time;durP1;ratioP1;P1;durP2;ratioP2;P2;SDS_P1;SDS_P2;PMS_P1;PMS_P2;Temp;Humidity;BMP_temperature;BMP_pressure;BME280_temperature;BME280_humidity;BME280_pressure;Samples;Min_cycle;Max_cycle;Signal;HPM_P1;HPM_P2
2021/12/03 00:01:58;;;;;;;;;12.60;11.60;;;;;5.00;100.00;98011.34;6310720;20;2796223;-46
2021/12/03 00:04:28;;;;;;;;;13.20;11.60;;;;;5.14;100.00;98025.53;6309281;20;2779424;-46
2021/12/03 00:06:59;;;;;;;;;10.86;10.86;;;;;4.96;100.00;98023.13;6326361;20;1808624;-50
2021/12/03 00:09:32;;;;;;;;;12.00;12.00;;;;;4.98;100.00;98025.69;6310378;20;2785887;-49
2021/12/03 00:12:00;;;;;;;;;7.50;7.50;;;;;5.00;100.00;98023.78;6287751;20;2740868;-47
2021/12/03 00:14:27;;;;;;;;;11.00;8.00;;;;;4.97;100.00;98023.97;6318303;20;2753491;-45
2021/12/03 00:16:56;;;;;;;;;8.50;6.00;;;;;4.94;100.00;98029.50;6301441;20;1821243;-49
2021/12/03 00:19:24;;;;;;;;;9.50;9.50;;;;;5.01;100.00;98044.13;6313311;20;2764868;-46
2021/12/03 00:21:53;;;;;;;;;10.25;9.75;;;;;4.97;100.00;98051.41;6301670;20;1812854;-46
2021/12/03 00:24:21;;;;;;;;;16.00;9.00;;;;;4.95;100.00;98033.84;6315945;20;2758598;-45
2021/12/03 00:26:49;;;;;;;;;8.00;8.00;;;;;4.88;100.00;98046.72;6285141;20;2736729;-48
2021/12/03 00:29:17;;;;;;;;;6.50;4.00;;;;;4.88;100.00;98046.72;6315697;20;2777363;-46
2021/12/03 00:31:44;;;;;;;;;6.00;4.00;;;;;4.84;100.00;98045.19;6315995;20;2752326;-47
2021/12/03 00:34:13;;;;;;;;;7.00;5.75;;;;;4.87;100.00;98045.03;6301889;20;1816011;-50
2021/12/03 00:36:42;;;;;;;;;7.50;6.00;;;;;4.73;100.00;98037.06;6331592;20;1819117;-47
2021/12/03 00:39:10;;;;;;;;;7.00;5.75;;;;;4.77;100.00;98044.75;6330318;20;1819104;-49
2021/12/03 00:41:46;;;;;;;;;5.50;5.00;;;;;4.70;100.00;98046.09;6334072;20;1821279;-48
2021/12/03 00:44:15;;;;;;;;;5.25;5.25;;;;;4.72;100.00;98051.31;6332815;20;1821242;-47
2021/12/03 00:46:43;;;;;;;;;6.50;3.00;;;;;4.64;100.00;98056.28;6328078;20;1811208;-47
2021/12/03 00:49:11;;;;;;;;;5.00;5.00;;;;;4.62;100.00;98062.53;6314392;20;2752522;-48
2021/12/03 00:51:40;;;;;;;;;3.50;3.50;;;;;4.60;100.00;98063.56;6332824;20;1814868;-50
2021/12/03 00:54:09;;;;;;;;;3.00;3.00;;;;;4.80;100.00;98057.84;6333991;20;1816035;-48
2021/12/03 00:56:37;;;;;;;;;7.75;4.75;;;;;4.54;100.00;98064.81;6333099;20;1821182;-51
2021/12/03 00:59:06;;;;;;;;;6.00;6.00;;;;;4.64;100.00;98069.56;6314628;20;2748257;-48
2021/12/03 01:01:34;;;;;;;;;9.00;5.00;;;;;4.53;100.00;98072.88;6281361;20;2754506;-49
2021/12/03 01:04:03;;;;;;;;;5.00;5.00;;;;;4.51;100.00;98070.34;6314737;20;2752442;-48
2021/12/03 01:06:31;;;;;;;;;6.00;3.00;;;;;4.47;100.00;98084.75;6283957;20;2752404;-49
2021/12/03 01:08:59;;;;;;;;;6.00;6.00;;;;;4.46;100.00;98088.38;6281483;20;2748161;-47
2021/12/03 01:11:27;;;;;;;;;6.00;3.00;;;;;4.46;100.00;98077.75;6283703;20;2744017;-46
2021/12/03 01:13:59;;;;;;;;;10.00;6.00;;;;;4.34;100.00;98081.16;6284060;20;2767945;-45
2021/12/03 01:16:30;;;;;;;;;6.50;5.00;;;;;4.53;100.00;98079.06;6301332;20;1819611;-47
2021/12/03 01:19:00;;;;;;;;;29.33;24.33;;;;;4.47;100.00;98068.81;6310409;20;3578434;-50
2021/12/03 01:21:31;;;;;;;;;10.00;7.80;;;;;4.54;100.00;98070.13;6306529;20;2763215;-46
2021/12/03 01:24:00;;;;;;;;;49.67;39.33;;;;;4.56;100.00;98067.41;6294656;20;3589800;-47
2021/12/03 01:26:28;;;;;;;;;33.00;24.00;;;;;4.66;100.00;98072.97;6278836;20;2492000;-47
2021/12/03 01:28:57;;;;;;;;;21.00;15.00;;;;;4.61;100.00;98071.47;6276268;20;3538792;-50
2021/12/03 01:31:25;;;;;;;;;14.00;10.50;;;;;4.54;100.00;98075.44;6309990;20;2777344;-49
2021/12/03 01:33:53;;;;;;;;;21.00;18.00;;;;;4.53;100.00;98078.19;6282896;20;2840455;-49
2021/12/03 01:36:22;;;;;;;;;11.00;11.00;;;;;4.40;100.00;98092.25;6282126;20;2792067;-48
2021/12/03 01:38:51;;;;;;;;;3.00;3.00;;;;;4.56;100.00;98100.13;6301514;20;1816862;-49
2021/12/03 01:41:19;;;;;;;;;6.00;3.00;;;;;4.49;100.00;98096.16;6330385;20;1814964;-50
2021/12/03 01:43:50;;;;;;;;;10.80;10.80;;;;;4.44;100.00;98097.38;6335783;20;2787812;-47
2021/12/03 01:46:20;;;;;;;;;7.67;5.67;;;;;4.58;100.00;98100.03;6285296;20;3448212;-52
2021/12/03 01:48:48;;;;;;;;;5.25;4.00;;;;;4.54;100.00;98083.44;6298163;20;1809978;-45
2021/12/03 01:51:19;;;;;;;;;21.50;12.83;;;;;4.52;100.00;98089.78;6335986;20;2816967;-48
2021/12/03 01:53:48;;;;;;;;;2.00;2.00;;;;;4.43;100.00;98093.88;6315628;20;2742975;-48
2021/12/03 01:56:20;;;;;;;;;2.00;2.00;;;;;4.42;100.00;98091.31;6297617;20;1811826;-45
2021/12/03 01:58:52;;;;;;;;;5.50;3.00;;;;;4.55;100.00;98093.09;6327354;20;1821271;-48
2021/12/03 02:01:27;;;;;;;;;11.00;5.75;;;;;4.50;100.00;98089.91;6330559;20;1819948;-46
2021/12/03 02:04:00;;;;;;;;;3.50;3.50;;;;;4.47;100.00;98098.03;6330216;20;1799829;-46
2021/12/03 02:06:29;;;;;;;;;4.50;2.00;;;;;4.56;100.00;98094.81;6329256;20;1813892;-48
2021/12/03 02:08:59;;;;;;;;;1.67;1.67;;;;;4.44;100.00;98100.88;6313447;20;3444020;-48
2021/12/03 02:11:28;;;;;;;;;2.25;2.00;;;;;4.25;100.00;98105.66;6299560;20;1824391;-45
2021/12/03 02:13:57;;;;;;;;;6.00;5.00;;;;;4.38;100.00;98095.97;6310293;20;2739911;-45
2021/12/03 02:16:27;;;;;;;;;2.75;2.00;;;;;4.54;100.00;98099.38;6330125;20;1813385;-48
2021/12/03 02:18:55;;;;;;;;;2.00;2.00;;;;;4.37;100.00;98103.09;6313824;20;3446064;-47
2021/12/03 02:21:24;;;;;;;;;2.00;2.00;;;;;4.50;100.00;98116.47;6300856;20;1813841;-45
2021/12/03 02:23:55;;;;;;;;;2.00;2.00;;;;;4.53;100.00;98110.09;6334472;20;1812961;-48
2021/12/03 02:26:24;;;;;;;;;0.75;0.75;;;;;4.50;100.00;98120.91;6336012;20;1809673;-46
2021/12/03 02:28:53;;;;;;;;;2.25;2.00;;;;;4.36;100.00;98111.13;6334632;20;1818060;-48
2021/12/03 02:31:25;;;;;;;;;1.00;1.00;;;;;4.55;100.00;98113.50;6332924;20;1805933;-45
2021/12/03 02:33:54;;;;;;;;;1.00;1.00;;;;;4.55;100.00;98118.81;6336611;20;1804440;-45
2021/12/03 02:36:23;;;;;;;;;2.25;2.25;;;;;4.57;100.00;98115.13;6335909;20;1821191;-46
2021/12/03 02:38:53;;;;;;;;;2.00;2.00;;;;;4.58;100.00;98122.16;6341086;20;1810749;-46
2021/12/03 02:41:21;;;;;;;;;1.00;1.00;;;;;4.32;100.00;98133.56;6337657;20;1811772;-45
2021/12/03 02:43:50;;;;;;;;;1.00;1.00;;;;;4.31;100.00;98142.44;6332308;20;1803421;-50
2021/12/03 02:46:18;;;;;;;;;1.00;1.00;;;;;4.33;100.00;98156.50;6321099;20;3431489;-45
2021/12/03 02:48:46;;;;;;;;;1.00;1.00;;;;;4.39;100.00;98162.28;6317460;20;3431587;-45
2021/12/03 02:51:15;;;;;;;;;1.00;1.00;;;;;4.41;100.00;98162.19;6321458;20;3427337;-47
2021/12/03 02:53:43;;;;;;;;;3.00;1.33;;;;;4.34;100.00;98164.34;6318757;20;3436854;-47
2021/12/03 02:56:10;;;;;;;;;2.00;2.00;;;;;4.38;100.00;98175.69;6318907;20;3454407;-45
2021/12/03 02:58:39;;;;;;;;;6.50;5.50;;;;;4.26;100.00;98176.41;6317584;20;2751705;-49
2021/12/03 03:01:10;;;;;;;;;8.50;3.00;;;;;4.28;100.00;98193.97;6304436;20;1816019;-46
2021/12/03 03:03:38;;;;;;;;;8.00;6.00;;;;;4.45;100.00;98192.97;6318486;20;2755579;-46
2021/12/03 03:06:08;;;;;;;;;6.50;5.00;;;;;4.27;100.00;98189.63;6305792;20;1807427;-49
2021/12/03 03:08:40;;;;;;;;;5.50;3.00;;;;;4.30;100.00;98185.91;6335742;20;1823353;-46
2021/12/03 03:11:09;;;;;;;;;2.75;2.75;;;;;4.32;100.00;98192.00;6333896;20;1810717;-46
2021/12/03 03:13:38;;;;;;;;;3.25;3.25;;;;;4.33;100.00;98199.00;6335642;20;1816026;-45
2021/12/03 03:16:07;;;;;;;;;6.75;5.00;;;;;4.27;100.00;98210.00;6333562;20;1821227;-50
2021/12/03 03:18:36;;;;;;;;;7.00;7.00;;;;;4.31;100.00;98211.53;6316332;20;2747175;-47
2021/12/03 03:21:06;;;;;;;;;6.00;6.00;;;;;4.38;100.00;98226.16;6284961;20;2742020;-46
2021/12/03 03:23:35;;;;;;;;;5.00;5.00;;;;;4.46;100.00;98233.69;6301696;20;1815531;-46
2021/12/03 03:26:05;;;;;;;;;5.00;2.00;;;;;4.35;100.00;98239.63;6333057;20;1815916;-46
2021/12/03 03:28:35;;;;;;;;;6.50;5.00;;;;;4.37;100.00;98251.00;6331356;20;1819007;-45
2021/12/03 03:31:05;;;;;;;;;5.50;5.50;;;;;4.26;100.00;98248.13;6331373;20;1819141;-45
2021/12/03 03:33:34;;;;;;;;;5.00;5.00;;;;;4.20;100.00;98246.69;6313662;20;2756536;-48
2021/12/03 03:36:04;;;;;;;;;3.00;3.00;;;;;4.20;100.00;98251.16;6304488;20;1813032;-46
2021/12/03 03:38:32;;;;;;;;;5.00;5.00;;;;;4.30;100.00;98247.03;6327535;20;1823318;-47
2021/12/03 03:41:00;;;;;;;;;5.00;5.00;;;;;4.37;100.00;98245.69;6317179;20;2750289;-45
2021/12/03 03:43:28;;;;;;;;;13.50;9.00;;;;;4.26;100.00;98246.31;6318071;20;2745051;-45
2021/12/03 03:45:56;;;;;;;;;7.50;7.00;;;;;4.12;100.00;98247.16;6283928;20;2741918;-46
2021/12/03 03:48:25;;;;;;;;;6.25;6.00;;;;;4.33;100.00;98254.81;6332909;20;1816541;-47
2021/12/03 03:50:54;;;;;;;;;4.00;4.00;;;;;4.23;100.00;98257.13;6333398;20;1809789;-47
2021/12/03 03:53:22;;;;;;;;;10.00;6.00;;;;;4.34;100.00;98251.19;6311715;20;2767992;-46
2021/12/03 03:55:50;;;;;;;;;14.00;13.00;;;;;4.24;100.00;98253.56;6284254;20;2789940;-47
2021/12/03 03:58:18;;;;;;;;;10.00;6.00;;;;;4.31;100.00;98257.53;6284803;20;2769000;-46
2021/12/03 04:00:47;;;;;;;;;13.00;9.00;;;;;4.25;100.00;98267.69;6283483;20;2761131;-46
2021/12/03 04:03:17;;;;;;;;;16.00;12.20;;;;;4.33;100.00;98274.25;6307594;20;2794131;-47
2021/12/03 04:05:45;;;;;;;;;9.00;9.00;;;;;4.06;100.00;98266.09;6288438;20;2756614;-46
2021/12/03 04:08:13;;;;;;;;;11.00;8.50;;;;;4.28;100.00;98264.84;6315188;20;2763984;-46
2021/12/03 04:10:42;;;;;;;;;8.25;7.00;;;;;4.12;100.00;98268.41;6303582;20;1813901;-47
2021/12/03 04:13:10;;;;;;;;;7.50;6.50;;;;;4.16;100.00;98280.56;6319357;20;2738866;-49
2021/12/03 04:15:39;;;;;;;;;14.00;13.50;;;;;3.99;100.00;98274.50;6284512;20;2797122;-47
2021/12/03 04:18:06;;;;;;;;;7.00;7.00;;;;;4.02;100.00;98277.00;6284427;20;2742955;-46
2021/12/03 04:20:36;;;;;;;;;12.20;11.00;;;;;4.08;100.00;98280.16;6306518;20;2791946;-46
2021/12/03 04:23:04;;;;;;;;;10.00;7.00;;;;;4.27;100.00;98281.75;6285218;20;2769131;-45
2021/12/03 04:25:35;;;;;;;;;13.80;12.60;;;;;4.08;100.00;98290.78;6306587;20;2814988;-45
2021/12/03 04:28:03;;;;;;;;;24.50;18.50;;;;;4.18;100.00;98304.38;6283144;20;2818343;-49
2021/12/03 04:30:32;;;;;;;;;24.00;19.33;;;;;4.10;100.00;98299.50;6280973;20;3565877;-46
2021/12/03 04:33:02;;;;;;;;;18.67;14.00;;;;;4.13;100.00;98301.13;6281312;20;3539802;-46
2021/12/03 04:35:30;;;;;;;;;11.00;11.00;;;;;4.14;100.00;98316.97;6313314;20;2785704;-45
2021/12/03 04:37:58;;;;;;;;;11.00;10.00;;;;;4.28;100.00;98328.59;6283563;20;2794285;-49
2021/12/03 04:40:29;;;;;;;;;18.00;14.00;;;;;4.39;100.00;98334.16;6281310;20;3552575;-49
2021/12/03 04:43:00;;;;;;;;;16.67;14.00;;;;;4.32;100.00;98338.13;6338073;20;2825269;-48
2021/12/03 04:45:30;;;;;;;;;14.50;10.00;;;;;4.14;100.00;98338.22;6312190;20;2781528;-49
2021/12/03 04:48:03;;;;;;;;;15.33;15.33;;;;;4.11;100.00;98346.38;6306341;20;2829551;-46
2021/12/03 04:50:41;;;;;;;;;13.60;11.00;;;;;4.24;100.00;98353.63;6338978;20;2780524;-48
2021/12/03 04:53:13;;;;;;;;;14.80;12.00;;;;;4.24;100.00;98361.59;6303938;20;2785671;-49
2021/12/03 04:55:42;;;;;;;;;16.67;14.67;;;;;4.43;100.00;98364.06;6283156;20;3539807;-47
2021/12/03 04:58:12;;;;;;;;;20.67;17.33;;;;;4.47;100.00;98377.06;6312546;20;3557628;-49
2021/12/03 05:00:51;;;;;;;;;25.50;23.00;;;;;4.23;100.00;98381.16;6308951;20;2500374;-45
2021/12/03 05:03:23;;;;;;;;;29.00;22.00;;;;;4.27;100.00;98393.31;6279450;20;2487785;-48
2021/12/03 05:05:55;;;;;;;;;21.00;16.00;;;;;4.23;100.00;98389.97;6281600;20;3569012;-48
2021/12/03 05:08:27;;;;;;;;;21.50;16.50;;;;;4.18;100.00;98403.50;6312827;20;2835681;-46
2021/12/03 05:10:57;;;;;;;;;19.67;14.67;;;;;4.58;100.00;98401.25;6282503;20;3540879;-47
2021/12/03 05:13:34;;;;;;;;;18.33;16.00;;;;;4.46;100.00;98403.75;6313558;20;3567955;-48
2021/12/03 05:16:05;;;;;;;;;16.33;12.00;;;;;4.37;100.00;98413.09;6312306;20;3521212;-47
2021/12/03 05:18:34;;;;;;;;;19.00;16.33;;;;;4.25;100.00;98411.16;6311776;20;3563779;-46
2021/12/03 05:21:04;;;;;;;;;20.00;18.50;;;;;4.22;100.00;98414.84;6314853;20;2835687;-48
2021/12/03 05:23:33;;;;;;;;;26.50;22.50;;;;;4.22;100.00;98416.63;6281621;20;2500263;-49
2021/12/03 05:26:03;;;;;;;;;27.67;23.33;;;;;4.16;100.00;98431.09;6279787;20;3571201;-46
2021/12/03 05:28:32;;;;;;;;;28.50;21.50;;;;;4.21;100.00;98446.78;6312364;20;2844231;-47
2021/12/03 05:31:02;;;;;;;;;43.00;34.67;;;;;4.17;100.00;98454.06;6280188;20;2879643;-46
2021/12/03 05:33:31;;;;;;;;;79.33;60.67;;;;;3.98;100.00;98448.91;6313580;20;3642928;-46
2021/12/03 05:36:01;;;;;;;;;54.67;43.67;;;;;4.02;100.00;98461.06;6312833;20;3631626;-48
2021/12/03 05:38:30;;;;;;;;;42.00;39.50;;;;;4.03;100.00;98477.88;6311452;20;2850330;-45
2021/12/03 05:40:59;;;;;;;;;57.00;44.50;;;;;4.22;100.00;98488.38;6279403;20;2860838;-46
2021/12/03 05:43:28;;;;;;;;;80.33;59.67;;;;;4.15;100.00;98487.81;6281899;20;3652301;-46
2021/12/03 05:45:58;;;;;;;;;74.00;57.00;;;;;3.98;100.00;98494.06;6307517;20;3644010;-47
2021/12/03 05:48:27;;;;;;;;;35.33;35.00;;;;;4.02;100.00;98498.25;6311266;20;2851403;-45
2021/12/03 05:50:56;;;;;;;;;38.00;36.50;;;;;4.05;100.00;98498.09;6312532;20;2861767;-46
2021/12/03 05:53:26;;;;;;;;;30.50;26.00;;;;;4.16;100.00;98503.69;6280863;20;2860800;-48
2021/12/03 05:55:55;;;;;;;;;42.00;33.00;;;;;3.90;100.00;98502.44;6284499;20;2849242;-46
2021/12/03 05:58:25;;;;;;;;;37.33;31.00;;;;;3.86;100.00;98518.63;6322154;20;2860709;-45
2021/12/03 06:00:55;;;;;;;;;39.00;35.67;;;;;4.03;100.00;98528.31;6321110;20;2873277;-47
2021/12/03 06:03:25;;;;;;;;;46.67;39.00;;;;;4.21;100.00;98537.09;6324160;20;2862912;-46
2021/12/03 06:05:54;;;;;;;;;62.33;45.00;;;;;4.22;100.00;98546.81;6321667;20;2872149;-45
2021/12/03 06:08:23;;;;;;;;;58.00;45.00;;;;;4.28;100.00;98552.63;6322368;20;2861697;-46
2021/12/03 06:10:53;;;;;;;;;56.00;44.00;;;;;4.21;100.00;98559.22;6287730;20;2847138;-50
2021/12/03 06:13:21;;;;;;;;;58.50;42.00;;;;;4.35;100.00;98563.81;6292195;20;2851308;-45
2021/12/03 06:15:51;;;;;;;;;43.00;33.00;;;;;4.28;100.00;98573.03;6290784;20;2875300;-46
2021/12/03 06:18:20;;;;;;;;;55.33;41.33;;;;;4.35;100.00;98579.75;6323959;20;3602313;-45
2021/12/03 06:20:49;;;;;;;;;56.00;45.00;;;;;4.18;100.00;98580.63;6292250;20;2863877;-46
2021/12/03 06:23:18;;;;;;;;;58.50;46.50;;;;;4.26;100.00;98582.88;6291718;20;2854430;-47
2021/12/03 06:25:47;;;;;;;;;70.33;55.00;;;;;4.19;100.00;98590.34;6292608;20;3637755;-46
2021/12/03 06:28:17;;;;;;;;;71.67;57.00;;;;;4.10;100.00;98602.28;6322953;20;2877373;-48
2021/12/03 06:30:47;;;;;;;;;76.00;58.67;;;;;4.31;100.00;98600.28;6320646;20;3626288;-46
2021/12/03 06:33:19;;;;;;;;;63.33;48.33;;;;;4.29;100.00;98601.31;6323534;20;2864919;-48
2021/12/03 06:35:49;;;;;;;;;58.00;46.00;;;;;4.23;100.00;98604.31;6320324;20;2856604;-47
2021/12/03 06:38:19;;;;;;;;;63.00;46.00;;;;;4.26;100.00;98609.44;6291667;20;2863798;-46
2021/12/03 06:40:52;;;;;;;;;49.00;41.00;;;;;3.99;100.00;98614.41;6291429;20;2870601;-48
2021/12/03 06:43:22;;;;;;;;;61.00;50.00;;;;;4.20;100.00;98620.41;6322461;20;2866984;-49
2021/12/03 06:45:52;;;;;;;;;54.00;41.00;;;;;4.18;100.00;98621.31;6290168;20;3634597;-46
2021/12/03 06:48:22;;;;;;;;;67.00;51.33;;;;;4.27;100.00;98624.47;6320027;20;3633561;-48
2021/12/03 06:50:52;;;;;;;;;86.00;64.33;;;;;4.10;100.00;98628.84;6323399;20;3642302;-48
2021/12/03 06:53:25;;;;;;;;;147.50;118.25;;;;;4.07;100.00;98636.97;6321359;20;4485109;-45
2021/12/03 06:56:05;;;;;;;;;77.67;59.33;;;;;3.95;100.00;98648.25;6323598;20;3639859;-45
2021/12/03 06:58:35;;;;;;;;;79.00;58.33;;;;;4.12;100.00;98648.22;6321552;20;3648246;-46
2021/12/03 07:01:04;;;;;;;;;93.67;74.67;;;;;4.20;100.00;98665.56;6321493;20;3657597;-45
2021/12/03 07:03:38;;;;;;;;;151.50;116.50;;;;;4.03;100.00;98656.69;6286620;20;1937899;-48
2021/12/03 07:06:07;;;;;;;;;95.00;70.00;;;;;3.97;100.00;98663.13;6287347;20;3666953;-46
2021/12/03 07:08:37;;;;;;;;;86.00;64.33;;;;;4.20;100.00;98676.19;6285796;20;3647219;-48
2021/12/03 07:11:07;;;;;;;;;69.00;54.00;;;;;3.99;100.00;98671.03;6317253;20;3624216;-45
2021/12/03 07:13:37;;;;;;;;;198.75;156.25;;;;;3.96;100.00;98692.44;6316412;20;3723220;-46
2021/12/03 07:16:06;;;;;;;;;31.00;28.00;;;;;3.93;100.00;98701.44;6281980;20;2848222;-46
2021/12/03 07:18:35;;;;;;;;;31.00;27.00;;;;;4.12;100.00;98701.34;6281564;20;2844022;-48
2021/12/03 07:21:05;;;;;;;;;34.00;28.67;;;;;4.24;99.14;98699.00;6282862;20;2866996;-46
2021/12/03 07:23:33;;;;;;;;;22.00;22.00;;;;;4.26;97.69;98713.06;6314651;20;2500250;-47
2021/12/03 07:26:02;;;;;;;;;20.50;20.50;;;;;4.22;98.42;98717.69;6284987;20;2823172;-48
2021/12/03 07:28:33;;;;;;;;;52.00;40.67;;;;;4.23;99.16;98727.38;6283519;20;2873257;-47
2021/12/03 07:31:03;;;;;;;;;72.33;57.33;;;;;4.22;98.95;98744.25;6313473;20;2863805;-50
2021/12/03 07:33:32;;;;;;;;;30.00;24.00;;;;;4.17;98.49;98744.47;6314433;20;2840340;-47
2021/12/03 07:36:01;;;;;;;;;37.50;36.50;;;;;4.22;97.43;98743.41;6286084;20;2850277;-46
2021/12/03 07:38:30;;;;;;;;;39.67;29.33;;;;;4.25;97.64;98748.56;6282130;20;2870109;-48
2021/12/03 07:40:59;;;;;;;;;36.50;30.00;;;;;4.21;95.75;98765.56;6313800;20;2857743;-47
2021/12/03 07:43:29;;;;;;;;;35.50;27.00;;;;;4.22;95.08;98767.31;6284617;20;2865862;-50
2021/12/03 07:45:59;;;;;;;;;27.50;26.00;;;;;4.15;96.26;98775.56;6284110;20;2847732;-47
2021/12/03 07:48:30;;;;;;;;;39.67;33.00;;;;;4.22;95.38;98781.44;6282479;20;2861809;-45
2021/12/03 07:50:58;;;;;;;;;25.50;21.50;;;;;4.25;94.14;98791.06;6313756;20;2500374;-51
2021/12/03 07:53:27;;;;;;;;;30.50;28.00;;;;;4.30;94.83;98795.19;6278100;20;2500300;-48
2021/12/03 07:55:56;;;;;;;;;34.50;26.00;;;;;4.23;92.25;98808.88;6283533;20;2857563;-49
2021/12/03 07:58:24;;;;;;;;;26.00;20.33;;;;;4.20;92.19;98803.72;6283614;20;3575275;-51
2021/12/03 08:00:54;;;;;;;;;28.00;24.50;;;;;4.10;91.65;98817.44;6284188;20;2852572;-47
2021/12/03 08:03:22;;;;;;;;;23.50;22.00;;;;;3.99;90.89;98817.09;6282407;20;2500476;-48
2021/12/03 08:05:52;;;;;;;;;24.67;22.33;;;;;4.03;90.25;98823.13;6283532;20;3577368;-48
2021/12/03 08:08:25;;;;;;;;;28.00;22.00;;;;;4.24;90.19;98837.16;6284060;20;2835832;-52
2021/12/03 08:10:55;;;;;;;;;18.67;13.67;;;;;4.29;85.07;98835.13;6282729;20;3536040;-47
2021/12/03 08:13:24;;;;;;;;;18.33;17.67;;;;;4.29;85.13;98835.13;6314950;20;3557041;-49
2021/12/03 08:15:51;;;;;;;;;17.00;13.00;;;;;4.22;82.92;98837.25;6319397;20;2798202;-45
2021/12/03 08:18:20;;;;;;;;;15.33;12.67;;;;;4.35;82.05;98851.63;6279497;20;2794034;-47
2021/12/03 08:20:49;;;;;;;;;15.50;14.50;;;;;4.30;81.43;98863.44;6316814;20;2813968;-49
2021/12/03 08:23:18;;;;;;;;;16.00;13.00;;;;;4.36;81.31;98871.94;6282520;20;3539945;-49
2021/12/03 08:25:46;;;;;;;;;19.50;16.00;;;;;4.40;79.15;98889.47;6317338;20;2839825;-49
2021/12/03 08:28:16;;;;;;;;;16.60;12.60;;;;;3.96;78.97;98879.19;6307425;20;2807725;-47
2021/12/03 08:30:46;;;;;;;;;18.60;13.00;;;;;4.37;81.57;98888.75;6298676;20;2800280;-50
2021/12/03 08:33:18;;;;;;;;;18.80;12.60;;;;;4.54;76.29;98894.09;6310103;20;2797143;-52
2021/12/03 08:35:47;;;;;;;;;36.00;27.00;;;;;4.17;78.39;98890.59;6283506;20;2500837;-49
2021/12/03 08:38:17;;;;;;;;;55.00;35.33;;;;;4.07;77.44;98899.06;6285548;20;3621079;-49
2021/12/03 08:41:09;;;;;;;;;30.00;23.00;;;;;4.16;79.11;98910.13;6317427;20;2836733;-47
2021/12/03 08:43:38;;;;;;;;;41.00;29.33;;;;;4.07;79.54;98905.25;6285423;20;2873318;-47
2021/12/03 08:46:13;;;;;;;;;26.50;18.50;;;;;4.06;77.24;98918.63;6319367;20;2845204;-48
2021/12/03 08:48:45;;;;;;;;;39.50;35.00;;;;;4.05;77.44;98917.72;6281415;20;2500333;-46
2021/12/03 08:51:28;;;;;;;;;23.33;15.33;;;;;4.05;77.10;98917.72;6282365;20;3569042;-47
2021/12/03 08:56:43;;;;;;;;;18.00;16.67;;;;;4.06;76.04;98914.16;6314573;20;2834775;-47
2021/12/03 08:59:14;;;;;;;;;7.00;5.50;;;;;4.14;74.00;98917.31;6318686;20;2752325;-46
2021/12/03 09:01:44;;;;;;;;;6.75;5.25;;;;;4.04;73.07;98924.00;6304856;20;1821325;-48
2021/12/03 09:04:14;;;;;;;;;15.40;11.60;;;;;4.27;74.75;98932.66;6342387;20;2794008;-51
2021/12/03 09:06:43;;;;;;;;;27.50;21.50;;;;;4.64;75.16;98937.06;6284957;20;2500260;-46
2021/12/03 09:09:11;;;;;;;;;22.50;13.50;;;;;4.15;71.76;98945.59;6286641;20;2821075;-50
2021/12/03 09:11:40;;;;;;;;;16.00;15.00;;;;;4.13;73.15;98952.78;6286341;20;2802445;-45
2021/12/03 09:14:25;;;;;;;;;20.33;17.00;;;;;4.27;71.16;98948.63;6317581;20;3574231;-51
2021/12/03 09:17:05;;;;;;;;;13.50;13.50;;;;;4.25;73.42;98950.47;6287183;20;2791929;-49
2021/12/03 09:19:39;;;;;;;;;13.50;11.00;;;;;4.34;71.78;98960.66;6279416;20;2775395;-50
2021/12/03 09:22:10;;;;;;;;;21.00;16.33;;;;;4.34;72.61;98956.19;6287374;20;3557565;-46
2021/12/03 09:24:38;;;;;;;;;15.50;11.50;;;;;4.32;70.06;98960.75;6283230;20;2796112;-46
2021/12/03 09:27:07;;;;;;;;;16.25;9.75;;;;;4.14;69.08;98959.81;6301062;20;1827394;-46
2021/12/03 09:29:37;;;;;;;;;36.67;25.00;;;;;4.33;70.91;98961.59;6313709;20;3611718;-46
2021/12/03 09:32:06;;;;;;;;;18.00;13.50;;;;;4.27;68.85;98981.34;6315900;20;3497162;-47
2021/12/03 09:34:37;;;;;;;;;10.00;9.00;;;;;4.29;68.97;98976.84;6360381;20;2491941;-45
2021/12/03 09:37:19;;;;;;;;;15.00;13.00;;;;;4.30;67.86;98985.66;6266642;20;2786861;-47
2021/12/03 09:39:48;;;;;;;;;7.00;5.50;;;;;4.57;68.10;98987.00;6297432;20;1810824;-46
2021/12/03 09:42:18;;;;;;;;;4.00;3.00;;;;;4.68;67.10;98990.94;6313012;20;2756976;-45
2021/12/03 09:44:52;;;;;;;;;6.50;6.00;;;;;4.38;67.31;98995.00;6315504;20;2745112;-45
2021/12/03 09:47:20;;;;;;;;;6.00;6.00;;;;;4.54;65.80;98999.56;6314994;20;2487944;-45
2021/12/03 09:49:54;;;;;;;;;7.50;7.00;;;;;4.33;67.59;99004.97;6312874;20;2737960;-46
2021/12/03 09:52:36;;;;;;;;;7.00;3.50;;;;;4.66;67.08;99006.09;6332377;20;1821219;-46
2021/12/03 09:55:11;;;;;;;;;6.00;4.50;;;;;4.72;65.24;99014.66;6330740;20;1811849;-44
2021/12/03 09:58:03;;;;;;;;;3.00;3.00;;;;;4.96;65.78;99011.72;6327323;20;1812913;-45
2021/12/03 10:00:39;;;;;;;;;2.50;2.50;;;;;4.90;64.31;99012.00;6314198;20;2756678;-45
2021/12/03 10:17:18;;;;;;;;;0.00;0.00;;;;;5.37;59.87;99020.28;6335541;20;1803401;-44
2021/12/03 10:20:18;;;;;;;;;2.00;0.00;;;;;5.30;57.17;99021.53;6325235;20;1809740;-46
2021/12/03 10:37:08;;;;;;;;;0.00;0.00;;;;;5.36;54.29;99046.97;6336301;20;1803925;-44
2021/12/03 11:19:48;;;;;;;;;0.50;0.00;;;;;5.86;47.92;99057.66;6339552;20;1801460;-45
2021/12/03 12:14:28;;;;;;;;;1.00;1.00;;;;;5.63;55.40;99130.75;6332741;20;1813869;-44
2021/12/03 12:19:47;;;;;;;;;6.00;3.00;;;;;5.81;55.48;99144.97;6301562;20;1812976;-46
2021/12/03 12:43:20;;;;;;;;;0.00;0.00;;;;;5.32;50.49;99168.72;6301589;20;1803403;-47
2021/12/03 13:33:39;;;;;;;;;3.75;2.25;;;;;4.88;55.19;99190.31;6304066;20;1820598;-44
2021/12/03 14:04:46;;;;;;;;;13.60;10.20;;;;;4.01;61.31;99216.31;6310458;20;2789834;-44
2021/12/03 14:55:57;;;;;;;;;21.00;20.00;;;;;2.90;69.99;99302.06;6321648;20;2829537;-44
2021/12/03 14:58:33;;;;;;;;;25.00;19.00;;;;;2.74;71.22;99308.81;6287433;20;2827393;-45
2021/12/03 15:04:26;;;;;;;;;20.33;15.33;;;;;2.69;71.76;99311.66;6318808;20;3564842;-45
2021/12/03 15:07:15;;;;;;;;;24.00;22.33;;;;;2.70;72.90;99315.16;6320239;20;3557516;-47
2021/12/03 15:09:47;;;;;;;;;45.67;32.67;;;;;2.71;72.72;99319.53;6285788;20;2871212;-45
2021/12/03 15:31:55;;;;;;;;;42.00;30.50;;;;;2.39;74.11;99361.25;6286450;20;2866931;-46
2021/12/03 16:04:40;;;;;;;;;52.67;41.33;;;;;1.87;75.51;99402.66;6285979;20;2874225;-45
2021/12/03 16:49:16;;;;;;;;;40.50;34.00;;;;;1.38;76.86;99436.75;6283632;20;2865243;-46
2021/12/03 16:51:29;;;;;;;;;26.00;23.00;;;;;1.12;77.81;99433.94;6282297;20;2500259;-45
2021/12/03 16:54:06;;;;;;;;;30.50;22.50;;;;;0.89;79.42;99440.69;6287392;20;2844029;-46
2021/12/03 16:56:43;;;;;;;;;30.67;26.00;;;;;0.86;79.12;99438.16;6287035;20;3580488;-45
2021/12/03 16:59:13;;;;;;;;;17.33;16.67;;;;;0.99;77.68;99452.78;6282004;20;3551285;-47
2021/12/03 17:01:52;;;;;;;;;25.33;22.67;;;;;0.94;78.62;99451.16;6316501;20;3566982;-45
2021/12/03 17:04:41;;;;;;;;;20.67;15.67;;;;;1.08;77.74;99441.97;6284261;20;3567010;-45
2021/12/03 17:13:37;;;;;;;;;15.00;10.00;;;;;1.06;76.07;99457.00;6312650;20;2777463;-46
2021/12/03 17:58:50;;;;;;;;;21.67;20.00;;;;;0.54;77.40;99478.59;6311755;20;3560667;-43
2021/12/03 18:01:47;;;;;;;;;28.50;26.00;;;;;0.38;79.03;99472.81;6307610;20;2500252;-44
2021/12/03 18:04:13;;;;;;;;;29.00;22.00;;;;;0.08;78.23;99480.53;6284873;20;2827447;-45
2021/12/03 18:56:43;;;;;;;;;65.50;53.00;;;;;-1.80;92.55;99514.69;6309139;20;2499227;-43
2021/12/03 18:59:15;;;;;;;;;100.67;74.67;;;;;-1.63;92.52;99514.47;6281365;20;3674379;-45
2021/12/03 19:01:46;;;;;;;;;88.33;67.00;;;;;-1.45;94.17;99504.53;6313161;20;3659630;-45
2021/12/03 19:04:38;;;;;;;;;99.00;73.00;;;;;-1.38;91.74;99516.72;6317978;20;3673196;-45
2021/12/03 19:07:12;;;;;;;;;81.33;59.67;;;;;-1.16;90.86;99526.03;6285845;20;2900284;-44
2021/12/03 19:09:46;;;;;;;;;61.67;47.67;;;;;-1.21;91.69;99519.06;6316975;20;3629495;-44
2021/12/03 19:12:19;;;;;;;;;63.00;50.00;;;;;-0.90;87.90;99522.91;6317053;20;2868006;-43